createdAt,value
2023-05-08T00:01:57.435Z,51.72
2023-05-08T00:04:23.980Z,51.66
2023-05-08T00:06:51.601Z,51.60
2023-05-08T00:09:18.053Z,51.39
2023-05-08T00:11:44.405Z,51.27
2023-05-08T00:14:10.822Z,51.12
2023-05-08T00:16:37.460Z,51.02
2023-05-08T00:19:03.903Z,50.85
2023-05-08T00:21:31.142Z,50.92
2023-05-08T00:23:57.490Z,50.95
2023-05-08T00:26:23.862Z,50.53
2023-05-08T00:28:50.216Z,50.63
2023-05-08T00:31:16.578Z,50.59
2023-05-08T00:33:43.003Z,50.60
2023-05-08T00:36:09.754Z,50.27
2023-05-08T00:38:37.094Z,50.46
2023-05-08T00:41:04.336Z,50.41
2023-05-08T00:43:30.873Z,50.34
2023-05-08T00:46:00.411Z,50.17
2023-05-08T00:48:33.906Z,50.16
2023-05-08T00:51:02.383Z,50.11
2023-05-08T00:53:32.807Z,50.16
2023-05-08T00:56:00.078Z,50.11
2023-05-08T00:58:27.425Z,50.05
2023-05-08T01:00:56.116Z,50.17
2023-05-08T01:03:24.040Z,49.89
2023-05-08T01:05:50.720Z,50.02
2023-05-08T01:08:17.213Z,50.06
2023-05-08T01:11:14.511Z,49.95
2023-05-08T01:14:02.940Z,50.33
2023-05-08T01:16:38.692Z,49.87
2023-05-08T01:19:32.467Z,49.85
2023-05-08T01:22:43.680Z,49.79
2023-05-08T01:25:28.733Z,49.86
2023-05-08T01:28:21.891Z,50.02
2023-05-08T01:31:10.155Z,49.89
2023-05-08T01:33:48.735Z,49.83
2023-05-08T01:36:29.099Z,49.83
2023-05-08T01:39:12.235Z,49.91
2023-05-08T01:41:41.152Z,50.07
2023-05-08T01:44:23.851Z,49.85
2023-05-08T01:46:52.117Z,50.24
2023-05-08T01:49:34.233Z,49.93
2023-05-08T01:52:10.486Z,50.01
2023-05-08T01:54:44.511Z,50.04
2023-05-08T01:57:13.326Z,49.98
2023-05-08T01:59:42.927Z,50.31
2023-05-08T02:02:10.333Z,50.14
2023-05-08T02:04:38.248Z,50.22
2023-05-08T02:07:05.137Z,50.35
2023-05-08T02:09:32.249Z,50.32
2023-05-08T02:12:01.122Z,50.41
2023-05-08T02:14:28.830Z,50.40
2023-05-08T02:16:57.746Z,50.45
2023-05-08T02:19:25.813Z,50.67
2023-05-08T02:21:53.321Z,50.63
2023-05-08T02:24:21.070Z,50.66
2023-05-08T02:26:48.845Z,50.69
2023-05-08T02:29:16.927Z,50.78
2023-05-08T02:31:45.947Z,50.83
2023-05-08T02:34:12.654Z,51.04
2023-05-08T02:36:41.021Z,50.99
2023-05-08T02:39:11.210Z,51.00
2023-05-08T02:41:40.654Z,51.31
2023-05-08T02:44:07.419Z,51.44
2023-05-08T02:46:36.448Z,51.44
2023-05-08T02:49:29.061Z,51.40
2023-05-08T02:52:13.697Z,51.22
2023-05-08T02:54:44.065Z,51.46
2023-05-08T02:57:43.538Z,51.18
2023-05-08T03:00:20.638Z,51.47
2023-05-08T03:03:12.151Z,51.41
2023-05-08T03:05:43.019Z,51.65
2023-05-08T03:08:20.804Z,51.63
2023-05-08T03:10:51.606Z,51.53
2023-05-08T03:13:20.995Z,51.78
2023-05-08T03:15:57.471Z,51.66
2023-05-08T03:18:31.008Z,51.61
2023-05-08T03:21:00.197Z,51.82
2023-05-08T03:23:29.376Z,52.02
2023-05-08T03:25:58.772Z,51.96
2023-05-08T03:28:26.235Z,52.22
2023-05-08T03:30:54.031Z,52.20
2023-05-08T03:33:23.306Z,52.32
2023-05-08T03:35:50.990Z,52.46
2023-05-08T03:38:17.457Z,52.50
2023-05-08T03:40:45.301Z,52.49
2023-05-08T03:43:12.086Z,52.29
2023-05-08T03:45:40.287Z,52.40
2023-05-08T03:48:08.607Z,52.54
2023-05-08T03:50:36.455Z,52.53
2023-05-08T03:53:03.308Z,52.70
2023-05-08T03:55:33.122Z,52.46
2023-05-08T03:58:17.474Z,52.60
2023-05-08T04:00:50.444Z,52.25
2023-05-08T04:03:24.811Z,52.35
2023-05-08T04:06:08.086Z,52.25
2023-05-08T04:08:45.248Z,52.33
2023-05-08T04:11:30.454Z,52.22
2023-05-08T04:14:07.045Z,52.46
2023-05-08T04:16:39.560Z,52.68
2023-05-08T04:19:28.815Z,52.54
2023-05-08T04:21:59.368Z,52.60
2023-05-08T04:24:29.015Z,52.74
2023-05-08T04:26:55.962Z,52.83
2023-05-08T04:29:23.045Z,53.02
2023-05-08T04:31:50.981Z,53.14
2023-05-08T04:34:18.362Z,53.27
2023-05-08T04:36:44.697Z,53.20
2023-05-08T04:39:11.106Z,53.28
2023-05-08T04:41:37.590Z,53.16
2023-05-08T04:44:04.580Z,53.29
2023-05-08T04:46:31.087Z,53.17
2023-05-08T04:48:57.583Z,53.26
2023-05-08T04:51:24.068Z,53.28
2023-05-08T04:53:50.624Z,52.99
2023-05-08T04:56:16.985Z,53.15
2023-05-08T04:58:43.399Z,52.92
2023-05-08T05:01:09.846Z,53.02
2023-05-08T05:03:36.729Z,53.05
2023-05-08T05:06:03.333Z,53.14
2023-05-08T05:08:29.748Z,53.10
2023-05-08T05:10:56.196Z,53.09
2023-05-08T05:13:22.732Z,52.66
2023-05-08T05:15:51.376Z,52.51
2023-05-08T05:18:18.284Z,52.65
2023-05-08T05:20:44.795Z,52.10
2023-05-08T05:23:11.951Z,52.00
2023-05-08T05:25:38.666Z,51.89
2023-05-08T05:28:05.229Z,51.44
2023-05-08T05:30:31.879Z,51.52
2023-05-08T05:32:58.785Z,51.32
2023-05-08T05:35:25.760Z,51.50
2023-05-08T05:37:52.276Z,51.17
2023-05-08T05:40:18.724Z,51.21
2023-05-08T05:42:49.876Z,51.06
2023-05-08T05:45:16.309Z,51.06
2023-05-08T05:47:49.956Z,50.85
2023-05-08T05:50:18.395Z,50.76
2023-05-08T05:52:44.852Z,50.91
2023-05-08T05:55:11.851Z,50.93
2023-05-08T05:57:38.590Z,50.99
2023-05-08T06:00:06.305Z,51.03
2023-05-08T06:02:35.484Z,51.17
2023-05-08T06:05:02.405Z,51.04
2023-05-08T06:07:28.865Z,51.23
2023-05-08T06:09:56.112Z,50.71
2023-05-08T06:12:22.648Z,50.73
2023-05-08T06:14:51.729Z,50.85
2023-05-08T06:17:18.988Z,50.74
2023-05-08T06:19:55.950Z,50.72
2023-05-08T06:22:24.141Z,50.81
2023-05-08T06:24:54.383Z,50.94
2023-05-08T06:27:22.038Z,50.67
2023-05-08T06:29:51.651Z,50.12
2023-05-08T06:32:18.338Z,49.62
2023-05-08T06:34:45.322Z,49.78
2023-05-08T06:37:11.748Z,49.50
2023-05-08T06:39:38.209Z,49.14
2023-05-08T06:42:08.613Z,49.09
2023-05-08T06:44:35.573Z,48.95
2023-05-08T06:47:02.129Z,48.97
2023-05-08T06:49:28.769Z,49.20
2023-05-08T06:51:57.717Z,48.79
2023-05-08T06:54:24.397Z,48.72
2023-05-08T06:56:52.762Z,48.56
2023-05-08T06:59:19.188Z,48.65
2023-05-08T07:01:45.729Z,48.23
2023-05-08T07:04:13.022Z,48.49
2023-05-08T07:06:39.441Z,48.20
2023-05-08T07:09:05.874Z,47.87
2023-05-08T07:11:32.306Z,48.21
2023-05-08T07:13:58.837Z,48.58
2023-05-08T07:16:25.301Z,48.34
2023-05-08T07:18:53.033Z,48.17
2023-05-08T07:21:21.382Z,48.13
2023-05-08T07:23:50.297Z,48.29
2023-05-08T07:26:16.716Z,48.44
2023-05-08T07:28:43.171Z,48.50
2023-05-08T07:31:10.213Z,48.49
2023-05-08T07:33:36.639Z,48.49
2023-05-08T07:36:03.181Z,48.58
2023-05-08T07:38:29.619Z,48.44
2023-05-08T07:40:57.535Z,48.27
2023-05-08T07:43:24.277Z,48.14
2023-05-08T07:45:50.680Z,48.07
2023-05-08T07:48:17.185Z,48.05
2023-05-08T07:50:44.560Z,48.07
2023-05-08T07:53:11.127Z,47.90
2023-05-08T07:55:37.607Z,47.95
2023-05-08T07:58:03.991Z,48.02
2023-05-08T08:00:30.395Z,48.21
2023-05-08T08:02:57.408Z,48.01
2023-05-08T08:05:24.058Z,48.02
2023-05-08T08:07:50.516Z,48.29
2023-05-08T08:10:17.100Z,48.28
2023-05-08T08:12:43.510Z,48.06
2023-05-08T08:15:10.336Z,48.08
2023-05-08T08:17:37.643Z,48.11
2023-05-08T08:20:04.714Z,48.11
2023-05-08T08:22:31.078Z,47.58
2023-05-08T08:24:57.714Z,47.37
2023-05-08T08:27:24.141Z,47.30
2023-05-08T08:29:52.514Z,46.88
2023-05-08T08:32:25.228Z,46.89
2023-05-08T08:34:51.769Z,46.76
2023-05-08T08:37:18.169Z,46.67
2023-05-08T08:39:44.617Z,46.90
2023-05-08T08:42:12.187Z,46.53
2023-05-08T08:44:40.161Z,46.24
2023-05-08T08:47:10.761Z,46.50
2023-05-08T08:49:42.892Z,46.53
2023-05-08T08:52:22.615Z,46.10
2023-05-08T08:54:50.402Z,45.56
2023-05-08T08:57:18.978Z,45.67
2023-05-08T08:59:45.645Z,45.21
2023-05-08T09:02:17.583Z,45.07
2023-05-08T09:04:44.311Z,44.68
2023-05-08T09:07:12.081Z,45.00
2023-05-08T09:09:44.403Z,44.44
2023-05-08T09:12:13.077Z,44.64
2023-05-08T09:14:39.507Z,44.09
2023-05-08T09:17:06.107Z,44.80
2023-05-08T09:19:33.538Z,44.60
2023-05-08T09:22:00.898Z,44.54
2023-05-08T09:24:54.737Z,44.74
2023-05-08T09:27:22.576Z,44.16
2023-05-08T09:30:04.511Z,44.14
2023-05-08T09:32:32.453Z,43.97
2023-05-08T09:34:59.688Z,43.88
2023-05-08T09:37:27.426Z,44.07
2023-05-08T09:39:54.654Z,43.68
2023-05-08T09:42:21.364Z,44.17
2023-05-08T09:44:52.944Z,43.72
2023-05-08T09:47:22.278Z,43.87
2023-05-08T09:50:03.215Z,44.09
2023-05-08T09:52:30.910Z,44.25
2023-05-08T09:55:02.146Z,44.08
2023-05-08T09:57:30.275Z,44.16
2023-05-08T10:00:05.912Z,44.09
2023-05-08T10:02:32.910Z,43.80
2023-05-08T10:04:59.338Z,43.56
2023-05-08T10:07:33.378Z,44.30
2023-05-08T10:10:07.023Z,44.00
2023-05-08T10:12:33.709Z,43.65
2023-05-08T10:15:00.719Z,43.35
2023-05-08T10:17:53.469Z,43.32
2023-05-08T10:20:21.721Z,42.98
2023-05-08T10:22:48.931Z,42.76
2023-05-08T10:25:17.683Z,42.23
2023-05-08T10:28:13.216Z,42.66
2023-05-08T10:30:50.552Z,42.12
2023-05-08T10:33:21.518Z,41.92
2023-05-08T10:35:48.100Z,41.17
2023-05-08T10:38:16.405Z,41.05
2023-05-08T10:40:43.168Z,40.97
2023-05-08T10:43:10.708Z,41.08
2023-05-08T10:45:37.917Z,41.11
2023-05-08T10:48:25.584Z,41.21
2023-05-08T10:51:02.819Z,40.96
2023-05-08T10:53:47.945Z,40.33
2023-05-08T10:56:14.367Z,40.03
2023-05-08T10:58:40.848Z,40.23
2023-05-08T11:01:07.914Z,40.17
2023-05-08T11:03:43.395Z,40.32
2023-05-08T11:06:10.096Z,39.95
2023-05-08T11:08:50.625Z,39.89
2023-05-08T11:11:30.263Z,40.12
2023-05-08T11:14:11.930Z,40.16
2023-05-08T11:17:03.704Z,39.86
2023-05-08T11:19:30.854Z,39.22
2023-05-08T11:22:14.542Z,39.73
2023-05-08T11:24:48.563Z,39.09
2023-05-08T11:27:15.845Z,38.62
2023-05-08T11:29:42.373Z,38.83
2023-05-08T11:32:08.766Z,38.66
2023-05-08T11:34:44.678Z,39.06
2023-05-08T11:37:18.302Z,39.60
2023-05-08T11:39:44.764Z,38.86
2023-05-08T11:42:40.596Z,39.15
2023-05-08T11:45:10.629Z,38.60
2023-05-08T11:47:41.243Z,38.85
2023-05-08T11:50:09.297Z,38.54
2023-05-08T11:52:37.123Z,38.71
2023-05-08T11:55:05.117Z,38.69
2023-05-08T11:57:34.964Z,38.95
2023-05-08T12:00:09.861Z,38.62
2023-05-08T12:02:37.054Z,38.50
2023-05-08T12:05:03.903Z,38.50
2023-05-08T12:07:31.272Z,38.48
2023-05-08T12:09:58.756Z,38.66
2023-05-08T12:12:36.828Z,38.64
2023-05-08T12:15:07.357Z,38.55
2023-05-08T12:17:38.217Z,38.15
2023-05-08T12:20:15.715Z,38.12
2023-05-08T12:22:49.483Z,37.62
2023-05-08T12:25:17.446Z,38.24
2023-05-08T12:27:44.877Z,37.74
2023-05-08T12:30:14.040Z,37.89
2023-05-08T12:32:42.353Z,38.03
2023-05-08T12:35:10.183Z,38.10
2023-05-08T12:37:36.741Z,37.84
2023-05-08T12:40:04.198Z,37.80
2023-05-08T12:42:49.686Z,37.95
2023-05-08T12:45:28.018Z,37.51
2023-05-08T12:48:00.321Z,37.47
2023-05-08T12:50:26.926Z,36.81
2023-05-08T12:52:53.508Z,36.57
2023-05-08T12:55:28.124Z,36.88
2023-05-08T12:58:05.950Z,36.89
2023-05-08T13:00:38.209Z,36.82
2023-05-08T13:03:05.420Z,36.67
2023-05-08T13:05:31.959Z,36.15
2023-05-08T13:08:09.141Z,36.66
2023-05-08T13:10:50.210Z,36.39
2023-05-08T13:13:19.195Z,36.47
2023-05-08T13:15:46.150Z,35.44
2023-05-08T13:18:12.816Z,35.27
2023-05-08T13:20:39.686Z,35.67
2023-05-08T13:23:06.475Z,35.33
2023-05-08T13:25:33.040Z,35.71
2023-05-08T13:28:00.306Z,35.75
2023-05-08T13:30:26.843Z,36.11
2023-05-08T13:33:09.215Z,35.92
2023-05-08T13:35:36.081Z,36.18
2023-05-08T13:38:02.793Z,36.82
2023-05-08T13:40:29.734Z,36.31
2023-05-08T13:42:56.101Z,35.92
2023-05-08T13:45:22.902Z,36.19
2023-05-08T13:47:50.008Z,36.15
2023-05-08T13:50:19.305Z,36.38
2023-05-08T13:52:45.770Z,36.30
2023-05-08T13:55:13.689Z,36.08
2023-05-08T13:57:40.696Z,36.28
2023-05-08T14:00:08.924Z,35.72
2023-05-08T14:02:35.784Z,35.71
2023-05-08T14:05:02.193Z,35.60
2023-05-08T14:07:29.899Z,35.31
2023-05-08T14:09:56.363Z,35.57
2023-05-08T14:12:22.873Z,35.13
2023-05-08T14:14:49.293Z,35.32
2023-05-08T14:17:15.709Z,35.22
2023-05-08T14:19:42.257Z,35.08
2023-05-08T14:22:08.733Z,35.61
2023-05-08T14:24:35.310Z,35.76
2023-05-08T14:27:05.610Z,35.46
2023-05-08T14:29:33.161Z,35.61
2023-05-08T14:31:59.620Z,35.39
2023-05-08T14:34:44.408Z,35.63
2023-05-08T14:37:11.496Z,35.57
2023-05-08T14:39:37.834Z,35.66
2023-05-08T14:44:33.599Z,35.40
2023-05-08T14:47:00.028Z,35.48
2023-05-08T14:49:36.555Z,35.44
2023-05-08T14:52:05.531Z,35.81
2023-05-08T14:54:32.103Z,35.65
2023-05-08T14:56:58.795Z,35.18
2023-05-08T14:59:25.239Z,35.35
2023-05-08T15:01:51.693Z,35.56
2023-05-08T15:04:18.220Z,35.16
2023-05-08T15:06:44.856Z,35.42
2023-05-08T15:09:11.252Z,35.12
2023-05-08T15:11:37.695Z,35.28
2023-05-08T15:14:05.338Z,35.49
2023-05-08T15:16:31.861Z,35.53
2023-05-08T15:18:58.327Z,35.30
2023-05-08T15:21:26.715Z,35.28
2023-05-08T15:23:54.982Z,35.57
2023-05-08T15:26:22.676Z,35.77
2023-05-08T15:28:49.477Z,35.53
2023-05-08T15:31:16.187Z,35.46
2023-05-08T15:33:44.960Z,35.14
2023-05-08T15:36:13.380Z,35.42
2023-05-08T15:38:40.989Z,35.16
2023-05-08T15:41:07.851Z,34.97
2023-05-08T15:43:34.221Z,34.48
2023-05-08T15:46:00.670Z,34.23
2023-05-08T15:48:27.172Z,34.48
2023-05-08T15:50:53.589Z,34.77
2023-05-08T15:53:19.931Z,34.44
2023-05-08T15:55:46.410Z,34.51
2023-05-08T15:58:12.781Z,34.11
2023-05-08T16:00:44.717Z,34.26
2023-05-08T16:03:12.251Z,33.77
2023-05-08T16:05:39.407Z,32.97
2023-05-08T16:08:05.988Z,32.91
2023-05-08T16:10:32.344Z,33.17
2023-05-08T16:12:58.804Z,32.65
2023-05-08T16:15:25.472Z,32.99
2023-05-08T16:17:51.808Z,32.74
2023-05-08T16:20:18.197Z,32.99
2023-05-08T16:22:44.638Z,33.26
2023-05-08T16:25:11.055Z,33.49
2023-05-08T16:27:37.589Z,33.48
2023-05-08T16:30:04.308Z,33.23
2023-05-08T16:32:30.758Z,33.46
2023-05-08T16:34:57.266Z,33.88
2023-05-08T16:37:23.706Z,33.80
2023-05-08T16:39:50.080Z,34.92
2023-05-08T16:42:18.779Z,35.16
2023-05-08T16:44:45.326Z,35.60
2023-05-08T16:47:11.802Z,35.85
2023-05-08T16:49:38.411Z,36.20
2023-05-08T16:52:04.742Z,35.43
2023-05-08T16:54:31.184Z,35.24
2023-05-08T16:56:57.758Z,35.13
2023-05-08T16:59:24.186Z,35.29
2023-05-08T17:01:50.600Z,35.02
2023-05-08T17:04:16.967Z,34.69
2023-05-08T17:06:43.336Z,34.62
2023-05-08T17:09:09.805Z,34.67
2023-05-08T17:11:36.189Z,34.46
2023-05-08T17:14:02.681Z,34.62
2023-05-08T17:16:29.143Z,34.52
2023-05-08T17:18:55.728Z,34.90
2023-05-08T17:21:22.164Z,34.74
2023-05-08T17:23:48.628Z,33.98
2023-05-08T17:26:15.117Z,33.51
2023-05-08T17:28:41.724Z,33.28
2023-05-08T17:31:08.134Z,32.43
2023-05-08T17:33:34.537Z,32.16
2023-05-08T17:36:02.275Z,31.92
2023-05-08T17:38:28.630Z,31.48
2023-05-08T17:40:56.304Z,31.81
2023-05-08T17:43:22.896Z,31.53
2023-05-08T17:45:49.312Z,31.95
2023-05-08T17:48:15.698Z,32.02
2023-05-08T17:50:43.499Z,32.34
2023-05-08T17:53:10.001Z,32.05
2023-05-08T17:55:37.043Z,32.58
2023-05-08T17:58:03.482Z,32.68
2023-05-08T18:00:29.841Z,33.03
2023-05-08T18:02:56.255Z,33.01
2023-05-08T18:05:22.866Z,33.26
2023-05-08T18:08:02.523Z,33.47
2023-05-08T18:10:28.948Z,33.87
2023-05-08T18:12:55.434Z,33.59
2023-05-08T18:15:21.837Z,34.36
2023-05-08T18:17:48.315Z,34.84
2023-05-08T18:20:15.891Z,34.71
2023-05-08T18:22:42.310Z,35.23
2023-05-08T18:25:08.825Z,35.32
2023-05-08T18:27:35.352Z,35.96
2023-05-08T18:30:01.993Z,36.07
2023-05-08T18:32:29.052Z,35.99
2023-05-08T18:34:56.741Z,36.14
2023-05-08T18:37:23.202Z,36.71
2023-05-08T18:39:50.005Z,36.73
2023-05-08T18:42:16.409Z,37.36
2023-05-08T18:44:43.905Z,37.33
2023-05-08T18:47:10.237Z,37.44
2023-05-08T18:49:36.710Z,38.11
2023-05-08T18:52:08.487Z,38.22
2023-05-08T18:54:34.885Z,38.26
2023-05-08T18:57:04.990Z,38.77
2023-05-08T18:59:31.375Z,39.28
2023-05-08T19:01:58.113Z,38.78
2023-05-08T19:04:24.501Z,38.75
2023-05-08T19:06:50.899Z,39.70
2023-05-08T19:09:17.273Z,40.10
2023-05-08T19:11:43.637Z,39.99
2023-05-08T19:14:10.865Z,40.12
2023-05-08T19:16:37.272Z,40.15
2023-05-08T19:19:03.642Z,41.18
2023-05-08T19:21:31.899Z,40.80
2023-05-08T19:23:58.251Z,40.22
2023-05-08T19:26:24.647Z,41.44
2023-05-08T19:28:51.081Z,40.96
2023-05-08T19:31:17.584Z,41.28
2023-05-08T19:33:43.993Z,41.35
2023-05-08T19:36:10.418Z,41.46
2023-05-08T19:38:39.967Z,41.36
2023-05-08T19:41:11.481Z,41.29
2023-05-08T19:43:37.897Z,41.22
2023-05-08T19:46:16.825Z,41.47
2023-05-08T19:48:43.251Z,41.51
2023-05-08T19:51:11.434Z,41.71
2023-05-08T19:53:38.132Z,41.88
2023-05-08T19:56:06.780Z,42.29
2023-05-08T19:58:33.274Z,42.09
2023-05-08T20:00:59.725Z,42.22
2023-05-08T20:03:26.348Z,42.21
2023-05-08T20:05:53.817Z,42.58
2023-05-08T20:08:20.471Z,42.78
2023-05-08T20:10:49.741Z,42.57
2023-05-08T20:13:17.650Z,42.90
2023-05-08T20:15:45.359Z,43.13
2023-05-08T20:18:12.232Z,43.19
2023-05-08T20:20:39.199Z,43.11
2023-05-08T20:23:06.078Z,43.23
2023-05-08T20:25:32.777Z,43.26
2023-05-08T20:27:59.709Z,43.50
2023-05-08T20:30:26.487Z,43.50
2023-05-08T20:32:53.019Z,44.06
2023-05-08T20:35:19.732Z,44.28
2023-05-08T20:37:47.579Z,44.45
2023-05-08T20:40:15.152Z,44.74
2023-05-08T20:42:42.097Z,45.05
2023-05-08T20:45:09.486Z,45.18
2023-05-08T20:47:36.152Z,45.35
2023-05-08T20:50:03.145Z,45.54
2023-05-08T20:52:32.069Z,45.91
2023-05-08T20:54:58.881Z,45.89
2023-05-08T20:57:25.863Z,46.18
2023-05-08T20:59:52.268Z,46.08
2023-05-08T21:02:18.761Z,46.53
2023-05-08T21:04:45.299Z,46.74
2023-05-08T21:07:11.885Z,46.74
2023-05-08T21:09:38.302Z,46.92
2023-05-08T21:12:04.829Z,47.25
2023-05-08T21:14:31.303Z,47.51
2023-05-08T21:16:57.757Z,47.23
2023-05-08T21:19:24.157Z,47.73
2023-05-08T21:21:50.689Z,48.11
2023-05-08T21:24:17.137Z,48.24
2023-05-08T21:26:43.472Z,48.61
2023-05-08T21:29:10.821Z,49.05
2023-05-08T21:31:37.325Z,49.09
2023-05-08T21:34:04.166Z,49.26
2023-05-08T21:36:32.056Z,49.51
2023-05-08T21:38:58.459Z,49.45
2023-05-08T21:41:24.934Z,49.88
2023-05-08T21:43:51.269Z,50.07
2023-05-08T21:46:17.687Z,49.59
2023-05-08T21:48:44.081Z,50.48
2023-05-08T21:51:10.437Z,50.08
2023-05-08T21:53:37.045Z,50.40
2023-05-08T21:56:03.521Z,50.59
2023-05-08T21:58:29.864Z,50.92
2023-05-08T22:00:58.383Z,50.50
2023-05-08T22:03:25.228Z,50.96
2023-05-08T22:05:51.762Z,50.83
2023-05-08T22:08:18.148Z,51.14
2023-05-08T22:10:44.684Z,50.76
2023-05-08T22:13:13.189Z,50.91
2023-05-08T22:15:39.750Z,51.02
2023-05-08T22:18:06.154Z,50.22
2023-05-08T22:20:33.260Z,49.97
2023-05-08T22:22:59.660Z,50.41
2023-05-08T22:25:26.613Z,50.35
2023-05-08T22:27:53.181Z,50.19
2023-05-08T22:30:19.655Z,50.01
2023-05-08T22:32:53.124Z,49.87
2023-05-08T22:35:22.245Z,49.76
2023-05-08T22:37:48.605Z,49.62
2023-05-08T22:40:14.955Z,49.78
2023-05-08T22:42:41.914Z,49.86
2023-05-08T22:45:09.030Z,50.01
2023-05-08T22:47:35.563Z,50.01
2023-05-08T22:50:03.496Z,50.07
2023-05-08T22:52:29.845Z,49.89
2023-05-08T22:54:56.189Z,50.03
2023-05-08T22:57:22.632Z,50.33
2023-05-08T22:59:48.966Z,50.51
2023-05-08T23:02:15.302Z,50.34
2023-05-08T23:04:41.765Z,50.61
2023-05-08T23:07:08.154Z,50.28
2023-05-08T23:09:34.499Z,50.14
2023-05-08T23:12:01.041Z,50.15
2023-05-08T23:14:27.410Z,50.31
2023-05-08T23:16:53.776Z,50.26
2023-05-08T23:19:20.217Z,50.11
2023-05-08T23:21:46.579Z,50.34
2023-05-08T23:24:13.017Z,50.37
2023-05-08T23:26:41.932Z,50.22
2023-05-08T23:29:08.674Z,51.05
2023-05-08T23:31:35.114Z,50.50
2023-05-08T23:34:01.836Z,50.52
2023-05-08T23:36:28.205Z,50.34
2023-05-08T23:38:54.565Z,50.20
2023-05-08T23:41:20.974Z,50.31
2023-05-08T23:43:47.369Z,50.39
2023-05-08T23:46:13.869Z,50.92
2023-05-08T23:48:40.396Z,51.11
2023-05-08T23:51:06.764Z,50.91
2023-05-08T23:53:33.090Z,51.00
2023-05-08T23:55:59.568Z,50.76
2023-05-08T23:58:26.248Z,50.81
